sensor_id;sensor_type;location;lat;lon;timestamp;pressure;altitude;pressure_sealevel;temperature;humidity
18755;BME280;35061;47.664;9.166;2024-02-15T00:01:28;102147.36;;;7.43;78.88
18755;BME280;35061;47.664;9.166;2024-02-15T00:03:56;102153.57;;;7.38;78.67
18755;BME280;35061;47.664;9.166;2024-02-15T00:06:25;102156.13;;;7.32;78.96
18755;BME280;35061;47.664;9.166;2024-02-15T00:08:53;102150.95;;;7.27;79.22
18755;BME280;35061;47.664;9.166;2024-02-15T00:11:21;102147.39;;;7.23;79.61
18755;BME280;35061;47.664;9.166;2024-02-15T00:13:49;102151.09;;;7.20;79.82
18755;BME280;35061;47.664;9.166;2024-02-15T00:16:17;102142.62;;;7.16;80.26
18755;BME280;35061;47.664;9.166;2024-02-15T00:18:45;102143.86;;;7.15;80.14
18755;BME280;35061;47.664;9.166;2024-02-15T00:21:13;102154.52;;;7.11;80.39
18755;BME280;35061;47.664;9.166;2024-02-15T00:23:41;102148.54;;;7.05;80.28
18755;BME280;35061;47.664;9.166;2024-02-15T00:26:10;102143.70;;;7.02;80.92
18755;BME280;35061;47.664;9.166;2024-02-15T00:28:43;102151.87;;;7.00;81.01
18755;BME280;35061;47.664;9.166;2024-02-15T00:31:11;102153.63;;;6.94;80.98
18755;BME280;35061;47.664;9.166;2024-02-15T00:33:39;102148.41;;;6.89;81.03
18755;BME280;35061;47.664;9.166;2024-02-15T00:36:08;102154.98;;;6.86;81.72
18755;BME280;35061;47.664;9.166;2024-02-15T00:38:36;102153.38;;;6.84;82.04
18755;BME280;35061;47.664;9.166;2024-02-15T00:41:05;102151.41;;;6.81;82.24
18755;BME280;35061;47.664;9.166;2024-02-15T00:43:36;102155.11;;;6.78;82.05
18755;BME280;35061;47.664;9.166;2024-02-15T00:46:04;102153.15;;;6.75;82.66
18755;BME280;35061;47.664;9.166;2024-02-15T00:48:32;102165.05;;;6.70;82.96
18755;BME280;35061;47.664;9.166;2024-02-15T00:51:00;102163.84;;;6.67;82.92
18755;BME280;35061;47.664;9.166;2024-02-15T00:53:28;102161.87;;;6.64;83.40
18755;BME280;35061;47.664;9.166;2024-02-15T00:55:56;102160.34;;;6.60;83.26
18755;BME280;35061;47.664;9.166;2024-02-15T00:58:24;102157.95;;;6.54;83.47
18755;BME280;35061;47.664;9.166;2024-02-15T01:00:54;102151.09;;;6.52;83.61
18755;BME280;35061;47.664;9.166;2024-02-15T01:03:22;102146.70;;;6.47;83.96
18755;BME280;35061;47.664;9.166;2024-02-15T01:05:50;102161.78;;;6.44;83.81
18755;BME280;35061;47.664;9.166;2024-02-15T01:08:19;102160.24;;;6.39;84.20
18755;BME280;35061;47.664;9.166;2024-02-15T01:10:48;102154.62;;;6.36;84.31
18755;BME280;35061;47.664;9.166;2024-02-15T01:13:16;102158.73;;;6.31;84.70
18755;BME280;35061;47.664;9.166;2024-02-15T01:15:44;102160.44;;;6.28;84.63
18755;BME280;35061;47.664;9.166;2024-02-15T01:18:12;102166.95;;;6.25;84.97
18755;BME280;35061;47.664;9.166;2024-02-15T01:20:40;102170.25;;;6.24;85.10
18755;BME280;35061;47.664;9.166;2024-02-15T01:23:08;102171.49;;;6.23;85.36
18755;BME280;35061;47.664;9.166;2024-02-15T01:25:36;102164.63;;;6.20;85.68
18755;BME280;35061;47.664;9.166;2024-02-15T01:28:05;102165.84;;;6.19;86.07
18755;BME280;35061;47.664;9.166;2024-02-15T01:30:33;102158.54;;;6.18;85.68
18755;BME280;35061;47.664;9.166;2024-02-15T01:33:02;102159.78;;;6.17;86.28
18755;BME280;35061;47.664;9.166;2024-02-15T01:35:30;102159.39;;;6.15;86.15
18755;BME280;35061;47.664;9.166;2024-02-15T01:37:58;102168.77;;;6.12;86.64
18755;BME280;35061;47.664;9.166;2024-02-15T01:40:26;102159.46;;;6.11;87.08
18755;BME280;35061;47.664;9.166;2024-02-15T01:42:54;102170.02;;;6.11;86.85
18755;BME280;35061;47.664;9.166;2024-02-15T01:45:22;102161.91;;;6.09;87.14
18755;BME280;35061;47.664;9.166;2024-02-15T01:47:52;102151.77;;;6.08;87.05
18755;BME280;35061;47.664;9.166;2024-02-15T01:50:21;102159.95;;;6.06;86.84
18755;BME280;35061;47.664;9.166;2024-02-15T01:52:52;102155.92;;;6.00;86.87
18755;BME280;35061;47.664;9.166;2024-02-15T01:55:22;102146.64;;;5.96;87.44
18755;BME280;35061;47.664;9.166;2024-02-15T01:57:50;102151.15;;;5.93;87.34
18755;BME280;35061;47.664;9.166;2024-02-15T02:00:18;102148.80;;;5.88;86.96
18755;BME280;35061;47.664;9.166;2024-02-15T02:02:47;102152.98;;;5.80;87.40
18755;BME280;35061;47.664;9.166;2024-02-15T02:05:16;102160.38;;;5.73;87.44
18755;BME280;35061;47.664;9.166;2024-02-15T02:07:44;102157.98;;;5.68;87.60
18755;BME280;35061;47.664;9.166;2024-02-15T02:10:12;102156.05;;;5.62;87.65
18755;BME280;35061;47.664;9.166;2024-02-15T02:12:42;102153.67;;;5.56;88.02
18755;BME280;35061;47.664;9.166;2024-02-15T02:15:10;102150.14;;;5.49;87.94
18755;BME280;35061;47.664;9.166;2024-02-15T02:17:38;102146.15;;;5.42;88.34
18755;BME280;35061;47.664;9.166;2024-02-15T02:20:08;102138.10;;;5.37;88.37
18755;BME280;35061;47.664;9.166;2024-02-15T02:22:39;102133.27;;;5.34;89.27
18755;BME280;35061;47.664;9.166;2024-02-15T02:25:08;102126.73;;;5.37;89.83
18755;BME280;35061;47.664;9.166;2024-02-15T02:27:36;102122.70;;;5.35;89.31
18755;BME280;35061;47.664;9.166;2024-02-15T02:30:15;102124.80;;;5.30;89.32
18755;BME280;35061;47.664;9.166;2024-02-15T02:32:45;102125.61;;;5.31;90.35
18755;BME280;35061;47.664;9.166;2024-02-15T02:35:16;102127.61;;;5.30;89.82
18755;BME280;35061;47.664;9.166;2024-02-15T02:37:44;102130.88;;;5.29;89.65
18755;BME280;35061;47.664;9.166;2024-02-15T02:40:12;102111.48;;;5.24;89.69
18755;BME280;35061;47.664;9.166;2024-02-15T02:42:55;102110.24;;;5.25;90.55
18755;BME280;35061;47.664;9.166;2024-02-15T02:45:29;102120.38;;;5.26;91.04
18755;BME280;35061;47.664;9.166;2024-02-15T02:47:57;102118.38;;;5.23;89.97
18755;BME280;35061;47.664;9.166;2024-02-15T02:50:25;102115.57;;;5.19;90.15
18755;BME280;35061;47.664;9.166;2024-02-15T02:52:53;102110.31;;;5.17;90.56
18755;BME280;35061;47.664;9.166;2024-02-15T02:55:22;102105.08;;;5.16;90.98
18755;BME280;35061;47.664;9.166;2024-02-15T02:57:50;102110.31;;;5.17;91.03
18755;BME280;35061;47.664;9.166;2024-02-15T03:00:18;102115.21;;;5.17;91.19
18755;BME280;35061;47.664;9.166;2024-02-15T03:02:47;102103.84;;;5.17;90.94
18755;BME280;35061;47.664;9.166;2024-02-15T03:05:16;102108.67;;;5.20;91.55
18755;BME280;35061;47.664;9.166;2024-02-15T03:07:44;102110.70;;;5.20;91.25
18755;BME280;35061;47.664;9.166;2024-02-15T03:10:13;102111.55;;;5.16;90.98
18755;BME280;35061;47.664;9.166;2024-02-15T03:12:41;102107.53;;;5.14;90.69
18755;BME280;35061;47.664;9.166;2024-02-15T03:15:15;102108.74;;;5.13;90.92
18755;BME280;35061;47.664;9.166;2024-02-15T03:17:46;102103.51;;;5.11;91.42
18755;BME280;35061;47.664;9.166;2024-02-15T03:20:16;102112.83;;;5.12;91.23
18755;BME280;35061;47.664;9.166;2024-02-15T03:22:56;102100.66;;;5.11;91.33
18755;BME280;35061;47.664;9.166;2024-02-15T03:25:25;102099.45;;;5.12;91.69
18755;BME280;35061;47.664;9.166;2024-02-15T03:27:54;102100.23;;;5.13;91.39
18755;BME280;35061;47.664;9.166;2024-02-15T03:30:24;102101.91;;;5.10;91.14
18755;BME280;35061;47.664;9.166;2024-02-15T03:32:53;102107.59;;;5.10;91.67
18755;BME280;35061;47.664;9.166;2024-02-15T03:35:23;102109.23;;;5.08;91.28
18755;BME280;35061;47.664;9.166;2024-02-15T03:37:52;102110.87;;;5.05;91.00
18755;BME280;35061;47.664;9.166;2024-02-15T03:40:21;102113.38;;;4.99;91.10
18755;BME280;35061;47.664;9.166;2024-02-15T03:42:49;102111.81;;;4.95;91.52
18755;BME280;35061;47.664;9.166;2024-02-15T03:45:18;102114.63;;;4.95;92.18
18755;BME280;35061;47.664;9.166;2024-02-15T03:47:46;102103.28;;;4.95;92.03
18755;BME280;35061;47.664;9.166;2024-02-15T03:50:14;102107.73;;;4.96;92.03
18755;BME280;35061;47.664;9.166;2024-02-15T03:52:42;102104.49;;;4.97;92.06
18755;BME280;35061;47.664;9.166;2024-02-15T03:55:11;102107.40;;;4.90;91.53
18755;BME280;35061;47.664;9.166;2024-02-15T03:57:40;102108.61;;;4.89;92.05
18755;BME280;35061;47.664;9.166;2024-02-15T04:00:09;102113.97;;;4.80;92.39
18755;BME280;35061;47.664;9.166;2024-02-15T04:02:39;102115.64;;;4.77;92.35
18755;BME280;35061;47.664;9.166;2024-02-15T04:05:09;102114.04;;;4.72;92.03
18755;BME280;35061;47.664;9.166;2024-02-15T04:07:39;102113.71;;;4.67;92.04
18755;BME280;35061;47.664;9.166;2024-02-15T04:10:07;102114.59;;;4.56;92.95
18755;BME280;35061;47.664;9.166;2024-02-15T04:12:36;102111.84;;;4.49;93.04
18755;BME280;35061;47.664;9.166;2024-02-15T04:15:04;102108.22;;;4.45;93.19
18755;BME280;35061;47.664;9.166;2024-02-15T04:17:40;102114.73;;;4.45;93.13
18755;BME280;35061;47.664;9.166;2024-02-15T04:20:09;102112.30;;;4.44;93.24
18755;BME280;35061;47.664;9.166;2024-02-15T04:22:39;102111.91;;;4.42;93.31
18755;BME280;35061;47.664;9.166;2024-02-15T04:25:10;102123.65;;;4.44;93.63
18755;BME280;35061;47.664;9.166;2024-02-15T04:27:38;102117.18;;;4.43;93.83
18755;BME280;35061;47.664;9.166;2024-02-15T04:30:07;102108.22;;;4.45;94.13
18755;BME280;35061;47.664;9.166;2024-02-15T04:32:38;102114.30;;;4.47;94.27
18755;BME280;35061;47.664;9.166;2024-02-15T04:35:07;102110.24;;;4.48;93.87
18755;BME280;35061;47.664;9.166;2024-02-15T04:37:38;102110.63;;;4.50;94.16
18755;BME280;35061;47.664;9.166;2024-02-15T04:40:06;102114.66;;;4.53;94.15
18755;BME280;35061;47.664;9.166;2024-02-15T04:42:38;102108.64;;;4.47;93.64
18755;BME280;35061;47.664;9.166;2024-02-15T04:45:08;102096.87;;;4.45;93.96
18755;BME280;35061;47.664;9.166;2024-02-15T04:47:38;102102.56;;;4.45;94.25
18755;BME280;35061;47.664;9.166;2024-02-15T04:50:08;102099.71;;;4.45;94.25
18755;BME280;35061;47.664;9.166;2024-02-15T04:52:36;102097.69;;;4.45;94.30
18755;BME280;35061;47.664;9.166;2024-02-15T04:55:05;102098.11;;;4.44;94.35
18755;BME280;35061;47.664;9.166;2024-02-15T04:57:33;102095.27;;;4.44;94.22
18755;BME280;35061;47.664;9.166;2024-02-15T05:00:04;102092.06;;;4.42;93.93
18755;BME280;35061;47.664;9.166;2024-02-15T05:02:41;102094.87;;;4.42;93.99
18755;BME280;35061;47.664;9.166;2024-02-15T05:05:10;102088.79;;;4.43;94.44
18755;BME280;35061;47.664;9.166;2024-02-15T05:07:41;102094.48;;;4.43;94.35
18755;BME280;35061;47.664;9.166;2024-02-15T05:10:10;102099.32;;;4.43;93.82
18755;BME280;35061;47.664;9.166;2024-02-15T05:12:38;102099.32;;;4.43;94.24
18755;BME280;35061;47.664;9.166;2024-02-15T05:15:08;102096.12;;;4.41;94.10
18755;BME280;35061;47.664;9.166;2024-02-15T05:17:40;102092.06;;;4.42;94.22
18755;BME280;35061;47.664;9.166;2024-02-15T05:20:11;102092.06;;;4.42;94.24
18755;BME280;35061;47.664;9.166;2024-02-15T05:22:41;102096.87;;;4.45;94.55
18755;BME280;35061;47.664;9.166;2024-02-15T05:25:18;102094.48;;;4.43;94.04
18755;BME280;35061;47.664;9.166;2024-02-15T05:27:53;102102.98;;;4.43;94.30
18755;BME280;35061;47.664;9.166;2024-02-15T05:30:23;102100.14;;;4.43;94.23
18755;BME280;35061;47.664;9.166;2024-02-15T05:32:51;102087.59;;;4.44;94.30
18755;BME280;35061;47.664;9.166;2024-02-15T05:35:22;102087.98;;;4.43;93.91
18755;BME280;35061;47.664;9.166;2024-02-15T05:37:50;102090.43;;;4.41;93.98
18755;BME280;35061;47.664;9.166;2024-02-15T05:40:20;102085.16;;;4.43;94.31
18755;BME280;35061;47.664;9.166;2024-02-15T05:42:54;102085.16;;;4.43;94.40
18755;BME280;35061;47.664;9.166;2024-02-15T05:47:53;102084.73;;;4.44;94.10
18755;BME280;35061;47.664;9.166;2024-02-15T05:50:21;102089.97;;;4.46;94.13
18755;BME280;35061;47.664;9.166;2024-02-15T05:52:51;102093.63;;;4.46;94.16
18755;BME280;35061;47.664;9.166;2024-02-15T05:55:20;102099.71;;;4.45;94.04
18755;BME280;35061;47.664;9.166;2024-02-15T05:57:48;102095.27;;;4.44;93.83
18755;BME280;35061;47.664;9.166;2024-02-15T06:00:17;102093.66;;;4.43;93.97
18755;BME280;35061;47.664;9.166;2024-02-15T06:02:49;102086.02;;;4.36;93.55
18755;BME280;35061;47.664;9.166;2024-02-15T06:05:18;102087.65;;;4.33;94.08
18755;BME280;35061;47.664;9.166;2024-02-15T06:07:47;102086.08;;;4.29;93.52
18755;BME280;35061;47.664;9.166;2024-02-15T06:10:15;102088.14;;;4.25;93.77
18755;BME280;35061;47.664;9.166;2024-02-15T06:12:43;102090.59;;;4.23;93.96
18755;BME280;35061;47.664;9.166;2024-02-15T06:15:11;102095.49;;;4.18;93.89
18755;BME280;35061;47.664;9.166;2024-02-15T06:17:46;102089.41;;;4.20;94.71
18755;BME280;35061;47.664;9.166;2024-02-15T06:20:15;102086.96;;;4.22;94.49
18755;BME280;35061;47.664;9.166;2024-02-15T06:22:46;102088.17;;;4.21;94.35
18755;BME280;35061;47.664;9.166;2024-02-15T06:25:14;102089.02;;;4.18;93.98
18755;BME280;35061;47.664;9.166;2024-02-15T06:27:51;102084.18;;;4.15;94.19
18755;BME280;35061;47.664;9.166;2024-02-15T06:30:26;102091.51;;;4.09;93.95
18755;BME280;35061;47.664;9.166;2024-02-15T06:33:13;102092.36;;;4.09;94.55
18755;BME280;35061;47.664;9.166;2024-02-15T06:36:04;102086.24;;;4.11;94.93
18755;BME280;35061;47.664;9.166;2024-02-15T06:38:51;102085.85;;;4.09;94.30
18755;BME280;35061;47.664;9.166;2024-02-15T06:41:37;102093.60;;;4.04;94.18
18755;BME280;35061;47.664;9.166;2024-02-15T06:44:05;102096.45;;;4.01;95.08
18755;BME280;35061;47.664;9.166;2024-02-15T06:46:34;102103.73;;;3.98;96.14
18755;BME280;35061;47.664;9.166;2024-02-15T06:49:02;102093.99;;;4.03;95.71
18755;BME280;35061;47.664;9.166;2024-02-15T06:51:32;102100.04;;;4.05;95.26
18755;BME280;35061;47.664;9.166;2024-02-15T06:54:01;102091.12;;;4.10;95.46
18755;BME280;35061;47.664;9.166;2024-02-15T06:56:29;102099.16;;;4.15;95.30
18755;BME280;35061;47.664;9.166;2024-02-15T06:58:58;102093.11;;;4.13;95.14
18755;BME280;35061;47.664;9.166;2024-02-15T07:01:26;102084.21;;;4.11;95.72
18755;BME280;35061;47.664;9.166;2024-02-15T07:03:54;102090.69;;;4.12;95.43
18755;BME280;35061;47.664;9.166;2024-02-15T07:06:25;102095.59;;;4.08;95.69
18755;BME280;35061;47.664;9.166;2024-02-15T07:08:55;102087.45;;;4.10;96.09
18755;BME280;35061;47.664;9.166;2024-02-15T07:11:25;102090.66;;;4.15;96.00
18755;BME280;35061;47.664;9.166;2024-02-15T07:13:53;102091.02;;;4.21;96.03
18755;BME280;35061;47.664;9.166;2024-02-15T07:16:22;102088.14;;;4.28;96.04
18755;BME280;35061;47.664;9.166;2024-02-15T07:18:51;102089.67;;;4.37;96.07
18755;BME280;35061;47.664;9.166;2024-02-15T07:21:20;102096.09;;;4.44;95.68
18755;BME280;35061;47.664;9.166;2024-02-15T07:23:54;102095.66;;;4.46;95.51
18755;BME280;35061;47.664;9.166;2024-02-15T07:26:26;102087.95;;;4.50;95.58
18755;BME280;35061;47.664;9.166;2024-02-15T07:28:55;102098.80;;;4.55;95.75
18755;BME280;35061;47.664;9.166;2024-02-15T07:31:27;102096.31;;;4.61;95.73
18755;BME280;35061;47.664;9.166;2024-02-15T07:33:56;102096.25;;;4.68;95.87
18755;BME280;35061;47.664;9.166;2024-02-15T07:36:25;102090.52;;;4.75;95.76
18755;BME280;35061;47.664;9.166;2024-02-15T07:38:54;102091.24;;;4.83;95.87
18755;BME280;35061;47.664;9.166;2024-02-15T07:41:22;102085.95;;;4.85;96.03
18755;BME280;35061;47.664;9.166;2024-02-15T07:43:51;102085.45;;;4.94;96.07
18755;BME280;35061;47.664;9.166;2024-02-15T07:46:20;102089.38;;;5.04;96.03
18755;BME280;35061;47.664;9.166;2024-02-15T07:48:49;102084.41;;;5.12;95.73
18755;BME280;35061;47.664;9.166;2024-02-15T07:51:21;102087.62;;;5.17;95.65
18755;BME280;35061;47.664;9.166;2024-02-15T07:53:49;102078.16;;;5.24;95.59
18755;BME280;35061;47.664;9.166;2024-02-15T07:56:18;102078.95;;;5.28;95.54
18755;BME280;35061;47.664;9.166;2024-02-15T07:58:48;102074.83;;;5.33;95.68
18755;BME280;35061;47.664;9.166;2024-02-15T08:01:19;102072.73;;;5.37;95.60
18755;BME280;35061;47.664;9.166;2024-02-15T08:03:52;102065.77;;;5.42;95.63
18755;BME280;35061;47.664;9.166;2024-02-15T08:06:22;102066.49;;;5.50;95.69
18755;BME280;35061;47.664;9.166;2024-02-15T08:08:52;102066.82;;;5.55;95.65
18755;BME280;35061;47.664;9.166;2024-02-15T08:11:21;102059.07;;;5.59;95.56
18755;BME280;35061;47.664;9.166;2024-02-15T08:13:52;102049.26;;;5.64;95.51
18755;BME280;35061;47.664;9.166;2024-02-15T08:16:23;102055.66;;;5.68;95.39
18755;BME280;35061;47.664;9.166;2024-02-15T08:18:51;102035.72;;;5.72;95.51
18755;BME280;35061;47.664;9.166;2024-02-15T08:23:54;102033.10;;;5.85;95.51
18755;BME280;35061;47.664;9.166;2024-02-15T08:26:23;102016.75;;;5.89;95.47
18755;BME280;35061;47.664;9.166;2024-02-15T08:28:51;102016.20;;;5.98;95.55
18755;BME280;35061;47.664;9.166;2024-02-15T08:31:21;102005.99;;;6.04;95.60
18755;BME280;35061;47.664;9.166;2024-02-15T08:33:49;102007.47;;;6.12;95.44
18755;BME280;35061;47.664;9.166;2024-02-15T08:36:17;102003.70;;;6.19;95.24
18755;BME280;35061;47.664;9.166;2024-02-15T08:38:47;102008.38;;;6.30;95.22
18755;BME280;35061;47.664;9.166;2024-02-15T08:41:15;101996.02;;;6.40;94.98
18755;BME280;35061;47.664;9.166;2024-02-15T08:43:46;101997.04;;;6.50;95.00
18755;BME280;35061;47.664;9.166;2024-02-15T08:46:16;101980.62;;;6.57;94.70
18755;BME280;35061;47.664;9.166;2024-02-15T08:48:44;101982.81;;;6.70;94.56
18755;BME280;35061;47.664;9.166;2024-02-15T08:51:12;101985.43;;;6.81;94.50
18755;BME280;35061;47.664;9.166;2024-02-15T08:53:40;101977.12;;;6.90;94.15
18755;BME280;35061;47.664;9.166;2024-02-15T08:56:08;101976.14;;;6.97;93.60
18755;BME280;35061;47.664;9.166;2024-02-15T08:58:37;101967.48;;;7.04;93.14
18755;BME280;35061;47.664;9.166;2024-02-15T09:01:07;101970.13;;;7.11;92.63
18755;BME280;35061;47.664;9.166;2024-02-15T09:03:35;101968.45;;;7.14;92.29
18755;BME280;35061;47.664;9.166;2024-02-15T09:06:04;101970.78;;;7.19;91.86
18755;BME280;35061;47.664;9.166;2024-02-15T09:08:33;101973.10;;;7.24;91.53
18755;BME280;35061;47.664;9.166;2024-02-15T09:11:01;101967.67;;;7.30;90.95
18755;BME280;35061;47.664;9.166;2024-02-15T09:13:31;101968.42;;;7.34;90.70
18755;BME280;35061;47.664;9.166;2024-02-15T09:16:05;101968.23;;;7.42;90.22
18755;BME280;35061;47.664;9.166;2024-02-15T09:18:33;101966.04;;;7.49;89.80
18755;BME280;35061;47.664;9.166;2024-02-15T09:21:01;101967.18;;;7.52;88.90
18755;BME280;35061;47.664;9.166;2024-02-15T09:23:29;101965.05;;;7.56;88.52
18755;BME280;35061;47.664;9.166;2024-02-15T09:25:59;101966.59;;;7.61;88.32
18755;BME280;35061;47.664;9.166;2024-02-15T09:28:27;101958.29;;;7.66;87.65
18755;BME280;35061;47.664;9.166;2024-02-15T09:30:55;101955.24;;;7.74;87.27
18755;BME280;35061;47.664;9.166;2024-02-15T09:33:27;101942.85;;;7.80;86.78
18755;BME280;35061;47.664;9.166;2024-02-15T09:35:55;101933.70;;;7.89;86.39
18755;BME280;35061;47.664;9.166;2024-02-15T09:38:23;101937.59;;;7.95;86.02
18755;BME280;35061;47.664;9.166;2024-02-15T09:40:53;101931.77;;;7.99;85.37
18755;BME280;35061;47.664;9.166;2024-02-15T09:43:22;101923.95;;;8.03;84.55
18755;BME280;35061;47.664;9.166;2024-02-15T09:45:53;101924.64;;;8.07;83.88
18755;BME280;35061;47.664;9.166;2024-02-15T09:48:25;101927.74;;;8.13;83.19
18755;BME280;35061;47.664;9.166;2024-02-15T09:50:54;101924.38;;;8.18;81.85
18755;BME280;35061;47.664;9.166;2024-02-15T09:53:23;101928.59;;;8.27;82.07
18755;BME280;35061;47.664;9.166;2024-02-15T09:55:53;101923.95;;;8.33;81.89
18755;BME280;35061;47.664;9.166;2024-02-15T09:58:22;101918.06;;;8.40;81.37
18755;BME280;35061;47.664;9.166;2024-02-15T10:00:54;101914.27;;;8.43;81.54
18755;BME280;35061;47.664;9.166;2024-02-15T10:03:24;101916.13;;;8.50;81.52
18755;BME280;35061;47.664;9.166;2024-02-15T10:05:56;101917.09;;;8.60;81.25
18755;BME280;35061;47.664;9.166;2024-02-15T10:08:25;101916.70;;;8.74;81.05
18755;BME280;35061;47.664;9.166;2024-02-15T10:11:06;101923.20;;;8.88;80.58
18755;BME280;35061;47.664;9.166;2024-02-15T10:13:36;101912.96;;;9.03;80.21
18755;BME280;35061;47.664;9.166;2024-02-15T10:16:15;101916.95;;;9.19;80.28
18755;BME280;35061;47.664;9.166;2024-02-15T10:18:45;101912.73;;;9.37;79.29
18755;BME280;35061;47.664;9.166;2024-02-15T10:21:25;101909.83;;;9.49;78.98
18755;BME280;35061;47.664;9.166;2024-02-15T10:24:08;101899.30;;;9.59;78.44
18755;BME280;35061;47.664;9.166;2024-02-15T10:26:37;101900.18;;;9.69;77.14
18755;BME280;35061;47.664;9.166;2024-02-15T10:29:10;101888.83;;;9.78;77.64
18755;BME280;35061;47.664;9.166;2024-02-15T10:31:39;101893.05;;;9.87;76.77
18755;BME280;35061;47.664;9.166;2024-02-15T10:34:09;101882.98;;;9.95;76.78
18755;BME280;35061;47.664;9.166;2024-02-15T10:36:42;101886.38;;;10.03;76.18
18755;BME280;35061;47.664;9.166;2024-02-15T10:39:11;101879.91;;;10.12;75.73
18755;BME280;35061;47.664;9.166;2024-02-15T10:41:46;101880.10;;;10.17;75.23
18755;BME280;35061;47.664;9.166;2024-02-15T10:44:19;101881.44;;;10.26;74.64
18755;BME280;35061;47.664;9.166;2024-02-15T10:46:49;101877.65;;;10.29;74.49
18755;BME280;35061;47.664;9.166;2024-02-15T10:49:22;101882.68;;;10.38;73.95
18755;BME280;35061;47.664;9.166;2024-02-15T10:52:01;101872.32;;;10.40;73.65
18755;BME280;35061;47.664;9.166;2024-02-15T10:54:58;101859.66;;;10.41;72.50
18755;BME280;35061;47.664;9.166;2024-02-15T10:57:31;101857.57;;;10.42;70.79
18755;BME280;35061;47.664;9.166;2024-02-15T11:00:03;101861.69;;;10.41;72.45
18755;BME280;35061;47.664;9.166;2024-02-15T11:02:42;101857.96;;;10.31;72.19
18755;BME280;35061;47.664;9.166;2024-02-15T11:05:14;101865.41;;;10.28;72.10
18755;BME280;35061;47.664;9.166;2024-02-15T11:07:49;101852.05;;;10.25;72.33
18755;BME280;35061;47.664;9.166;2024-02-15T11:10:17;101841.05;;;10.24;72.30
18755;BME280;35061;47.664;9.166;2024-02-15T11:12:46;101830.40;;;10.24;71.89
18755;BME280;35061;47.664;9.166;2024-02-15T11:18:04;101823.07;;;10.23;70.57
18755;BME280;35061;47.664;9.166;2024-02-15T11:23:04;101817.28;;;10.36;71.34
18755;BME280;35061;47.664;9.166;2024-02-15T11:25:33;101813.69;;;10.45;71.30
18755;BME280;35061;47.664;9.166;2024-02-15T11:30:51;101799.88;;;10.53;70.02
18755;BME280;35061;47.664;9.166;2024-02-15T11:33:32;101813.91;;;10.60;70.44
18755;BME280;35061;47.664;9.166;2024-02-15T11:38:34;101790.44;;;10.74;70.39
18755;BME280;35061;47.664;9.166;2024-02-15T11:41:06;101797.14;;;10.81;70.04
18755;BME280;35061;47.664;9.166;2024-02-15T11:46:21;101783.83;;;10.96;69.41
18755;BME280;35061;47.664;9.166;2024-02-15T11:48:52;101789.26;;;11.03;69.03
18755;BME280;35061;47.664;9.166;2024-02-15T11:51:30;101781.18;;;11.11;69.15
18755;BME280;35061;47.664;9.166;2024-02-15T11:54:20;101771.80;;;11.20;68.45
18755;BME280;35061;47.664;9.166;2024-02-15T11:56:55;101774.51;;;11.24;67.24
18755;BME280;35061;47.664;9.166;2024-02-15T11:59:42;101780.56;;;11.26;66.63
18755;BME280;35061;47.664;9.166;2024-02-15T12:02:21;101782.00;;;11.30;66.90
18755;BME280;35061;47.664;9.166;2024-02-15T12:05:07;101778.83;;;11.38;67.16
18755;BME280;35061;47.664;9.166;2024-02-15T12:07:55;101774.87;;;11.44;67.38
18755;BME280;35061;47.664;9.166;2024-02-15T12:10:42;101770.72;;;11.55;67.48
18755;BME280;35061;47.664;9.166;2024-02-15T12:13:29;101767.35;;;11.66;67.46
18755;BME280;35061;47.664;9.166;2024-02-15T12:16:16;101763.06;;;11.70;66.34
18755;BME280;35061;47.664;9.166;2024-02-15T12:19:03;101765.91;;;11.80;66.45
18755;BME280;35061;47.664;9.166;2024-02-15T12:21:31;101760.65;;;11.87;66.38
18755;BME280;35061;47.664;9.166;2024-02-15T12:24:01;101752.02;;;11.97;66.14
18755;BME280;35061;47.664;9.166;2024-02-15T12:26:29;101744.23;;;12.07;65.83
18755;BME280;35061;47.664;9.166;2024-02-15T12:29:02;101741.65;;;12.18;65.65
18755;BME280;35061;47.664;9.166;2024-02-15T12:31:30;101746.88;;;12.29;65.58
18755;BME280;35061;47.664;9.166;2024-02-15T12:34:03;101740.34;;;12.38;64.87
18755;BME280;35061;47.664;9.166;2024-02-15T12:36:36;101732.46;;;12.48;65.35
18755;BME280;35061;47.664;9.166;2024-02-15T12:39:06;101735.01;;;12.55;64.99
18755;BME280;35061;47.664;9.166;2024-02-15T12:41:48;101726.51;;;12.61;65.10
18755;BME280;35061;47.664;9.166;2024-02-15T12:44:19;101727.91;;;12.65;64.62
18755;BME280;35061;47.664;9.166;2024-02-15T12:46:55;101727.26;;;12.70;64.41
18755;BME280;35061;47.664;9.166;2024-02-15T12:51:53;101721.57;;;12.86;64.12
18755;BME280;35061;47.664;9.166;2024-02-15T12:54:22;101710.68;;;12.90;64.07
18755;BME280;35061;47.664;9.166;2024-02-15T12:57:07;101706.98;;;12.98;63.45
18755;BME280;35061;47.664;9.166;2024-02-15T12:59:41;101702.02;;;12.99;61.43
18755;BME280;35061;47.664;9.166;2024-02-15T13:02:10;101703.23;;;13.07;63.23
18755;BME280;35061;47.664;9.166;2024-02-15T13:04:38;101690.27;;;13.12;62.67
18755;BME280;35061;47.664;9.166;2024-02-15T13:07:06;101691.78;;;13.22;62.94
18755;BME280;35061;47.664;9.166;2024-02-15T13:09:35;101678.30;;;13.29;62.84
18755;BME280;35061;47.664;9.166;2024-02-15T13:12:03;101677.91;;;13.36;63.12
18755;BME280;35061;47.664;9.166;2024-02-15T13:14:32;101672.29;;;13.42;63.02
18755;BME280;35061;47.664;9.166;2024-02-15T13:17:02;101670.36;;;13.48;62.64
18755;BME280;35061;47.664;9.166;2024-02-15T13:19:30;101665.36;;;13.48;62.26
18755;BME280;35061;47.664;9.166;2024-02-15T13:21:59;101658.66;;;13.51;62.31
18755;BME280;35061;47.664;9.166;2024-02-15T13:24:27;101657.94;;;13.57;62.50
18755;BME280;35061;47.664;9.166;2024-02-15T13:26:55;101651.82;;;13.64;62.33
18755;BME280;35061;47.664;9.166;2024-02-15T13:29:25;101647.24;;;13.72;62.08
18755;BME280;35061;47.664;9.166;2024-02-15T13:31:53;101633.93;;;13.75;61.31
18755;BME280;35061;47.664;9.166;2024-02-15T13:34:22;101635.63;;;13.81;61.42
18755;BME280;35061;47.664;9.166;2024-02-15T13:36:52;101624.52;;;13.89;61.43